Main page
METAR-TAF:

METAR-TAF

Airports :

N'djili Airport

Kinshasa, Congo

latitude: 04-23S, longitude: 015-26E, elevation: 309 m

Current weather observation

The report was made 1 hour and 10 minutes ago, at 08:00 UTC
Wind 8 kt from the West/Southwest
Temperature 23°C
Humidity 78%
Pressure 1017 hPa
Visibility: 4000 m
mist

METAR: FZAA 210800Z 25008KT 4000 BR NSC 23/19 Q1017 BECMG 6000

Time: 10:10 (09:10 UTC)

Forecast

The report was made 4 hours and 10 minutes ago, at 05:00 UTC
Forecast valid from 21 at 06 UTC to 22 at 12 UTC
Wind 4 kt from the South/Southwest
Visibility: 3000 m
Scattered clouds at a height of 1600 ft
mist
Becoming
from 21 at 09 UTC to 21 at 11 UTC
Wind 8 kt from the North/Northwest
Visibility: 6000 m
Few clouds at a height of 2200 ft
Becoming
from 22 at 05 UTC to 22 at 07 UTC
Wind 6 kt from the South/Southwest
Visibility: 3000 m
Broken clouds at a height of 1600 ft
mist

TAF: FZAA 210500Z 2106/2212 21004KT 3000 BR SCT016 BECMG 2109/2111 34008KT 6000 NSW FEW022 BECMG 2205/2207 20006KT 3000 BR BKN016

Weather observations and forecasts of more than 4000 airports (METAR and TAF reports).

The available stations are represented by yellow and red dots on the map.

Hover mouse over dot to see the name of the station.

Then click to see weather observations and forecasts.

To change the map : click on the green buttons with a black cross to zoom in, on the green button with a dash to zoom out, or on the green arrows for adjacent maps.


METAR-TAF: